Time;durP1;ratioP1;P1;durP2;ratioP2;P2;SDS_P1;SDS_P2;PMS_P1;PMS_P2;Temp;Humidity;BMP_temperature;BMP_pressure;BME280_temperature;BME280_humidity;BME280_pressure;Samples;Min_cycle;Max_cycle;Signal;HPM_P1;HPM_P2
2022/03/03 00:00:19;;;;;;;701.20;663.38;;;;;;;2.46;52.66;101789.09;670844;29;46174;-71
2022/03/03 00:00:40;;;;;;;839.60;791.70;;;;;;;2.44;52.59;101785.69;670801;29;67529;-71
2022/03/03 00:01:01;;;;;;;871.22;821.08;;;;;;;2.46;52.20;101789.97;672139;29;21348;-71
2022/03/03 00:01:22;;;;;;;870.38;820.22;;;;;;;2.49;52.41;101783.56;671259;29;21542;-71
2022/03/03 00:01:45;;;;;;;886.65;835.42;;;;;;;2.48;52.26;101796.03;672124;29;21569;-71
2022/03/03 00:02:06;;;;;;;901.53;849.42;;;;;;;2.46;52.31;101779.31;668461;29;67443;-70
2022/03/03 00:02:27;;;;;;;922.30;868.90;;;;;;;2.48;52.11;101788.06;670272;29;23467;-70
2022/03/03 00:02:48;;;;;;;919.45;866.28;;;;;;;2.47;52.18;101790.81;673187;29;1132;-71
2022/03/03 00:03:10;;;;;;;914.38;861.47;;;;;;;2.45;52.26;101777.56;672763;29;21544;-70
2022/03/03 00:03:31;;;;;;;935.58;881.38;;;;;;;2.47;52.29;101791.66;671451;29;46306;-70
2022/03/03 00:03:52;;;;;;;939.38;884.92;;;;;;;2.47;52.26;101790.81;672049;29;24147;-70
2022/03/03 00:04:14;;;;;;;853.53;804.97;;;;;;;2.45;52.27;101796.25;672369;29;22393;-71
2022/03/03 00:04:35;;;;;;;537.38;510.13;;;;;;;2.44;52.40;101794.53;671808;29;44369;-70
2022/03/03 00:04:57;;;;;;;542.73;515.27;;;;;;;2.42;52.36;101799.09;672094;29;22397;-69
2022/03/03 00:05:18;;;;;;;626.90;594.15;;;;;;;2.41;52.21;101792.06;671197;29;46379;-71
2022/03/03 00:05:41;;;;;;;394.02;374.60;;;;;;;2.41;52.39;101793.88;672378;29;22402;-71
2022/03/03 00:06:02;;;;;;;59.72;56.92;;;;;;;2.38;52.45;101786.06;670524;29;67472;-71
2022/03/03 00:06:23;;;;;;;0.50;0.50;;;;;;;2.39;52.55;101799.31;672585;29;5903;-71
2022/03/03 00:06:44;;;;;;;0.50;0.50;;;;;;;2.38;52.49;101786.91;672268;29;22316;-71
2022/03/03 00:07:06;;;;;;;0.40;0.40;;;;;;;2.37;52.66;101790.56;672080;29;23386;-71
2022/03/03 00:07:28;;;;;;;0.55;0.55;;;;;;;2.34;52.65;101782.75;671429;29;43968;-71
2022/03/03 00:07:49;;;;;;;0.70;0.70;;;;;;;2.36;52.72;101786.16;671694;29;44167;-71
2022/03/03 00:08:10;;;;;;;0.60;0.60;;;;;;;2.35;52.73;101787.09;672407;29;22187;-71
2022/03/03 00:08:31;;;;;;;0.60;0.60;;;;;;;2.36;52.80;101786.16;672372;29;21542;-71
2022/03/03 00:08:52;;;;;;;0.50;0.50;;;;;;;2.37;52.81;101789.69;672537;29;22203;-71
2022/03/03 00:09:14;;;;;;;0.55;0.55;;;;;;;2.39;52.82;101787.78;672301;29;22411;-71
2022/03/03 00:09:36;;;;;;;0.50;0.50;;;;;;;2.41;52.74;101789.38;669787;29;69133;-71
2022/03/03 00:09:57;;;;;;;0.50;0.50;;;;;;;2.43;52.57;101792.84;672163;29;23437;-70
2022/03/03 00:10:18;;;;;;;0.70;0.70;;;;;;;2.42;52.59;101783.09;672065;29;22237;-69
2022/03/03 00:10:40;;;;;;;0.65;0.65;;;;;;;2.43;52.54;101779.50;672414;29;23537;-71
2022/03/03 00:11:01;;;;;;;0.60;0.60;;;;;;;2.44;52.56;101786.53;671551;29;45182;-69
2022/03/03 00:11:23;;;;;;;0.60;0.60;;;;;;;2.43;52.45;101782.16;671525;29;21500;-70
2022/03/03 00:11:44;;;;;;;0.50;0.50;;;;;;;2.43;52.52;101783.94;671614;29;46353;-70
2022/03/03 00:12:07;;;;;;;0.50;0.50;;;;;;;2.40;52.48;101774.38;672314;29;21533;-71
2022/03/03 00:12:28;;;;;;;0.50;0.50;;;;;;;2.39;52.61;101783.31;672132;29;29038;-71
2022/03/03 00:12:49;;;;;;;0.60;0.60;;;;;;;2.38;52.63;101781.56;672300;29;23153;-70
2022/03/03 00:13:10;;;;;;;0.70;0.70;;;;;;;2.41;52.57;101775.22;672601;29;22486;-71
2022/03/03 00:13:31;;;;;;;0.70;0.70;;;;;;;2.40;52.69;101770.81;672615;29;23695;-71
2022/03/03 00:13:53;;;;;;;0.60;0.60;;;;;;;2.39;52.70;101769.97;672221;29;23335;-71
2022/03/03 00:14:14;;;;;;;0.50;0.50;;;;;;;2.40;52.58;101774.38;672044;29;45884;-71
2022/03/03 00:14:36;;;;;;;0.50;0.50;;;;;;;2.41;52.52;101765.38;674554;29;22399;-71
2022/03/03 00:14:57;;;;;;;0.50;0.50;;;;;;;2.38;52.53;101760.25;673662;29;46340;-71
2022/03/03 00:15:19;;;;;;;0.60;0.60;;;;;;;2.43;52.48;101775.94;673704;29;46379;-71
2022/03/03 00:15:40;;;;;;;0.75;0.75;;;;;;;2.43;52.50;101774.16;674226;29;44421;-71
2022/03/03 00:16:02;;;;;;;0.60;0.60;;;;;;;2.42;52.60;101767.09;669286;29;22248;-70
2022/03/03 00:16:23;;;;;;;0.60;0.60;;;;;;;2.46;52.35;101771.31;668916;29;39745;-71
2022/03/03 00:16:45;;;;;;;0.52;0.52;;;;;;;2.46;52.40;101763.31;669670;29;23480;-71
2022/03/03 00:17:07;;;;;;;0.50;0.50;;;;;;;2.46;52.27;101763.31;669230;29;46347;-71
2022/03/03 00:17:28;;;;;;;0.50;0.50;;;;;;;2.48;52.35;101772.03;669201;29;45110;-71
2022/03/03 00:17:49;;;;;;;0.50;0.50;;;;;;;2.49;52.30;101768.44;669688;29;23488;-71
2022/03/03 00:18:11;;;;;;;0.60;0.60;;;;;;;2.50;52.21;101763.94;669971;29;22419;-71
2022/03/03 00:18:32;;;;;;;0.60;0.60;;;;;;;2.50;52.16;101771.94;669185;29;43852;-71
2022/03/03 00:18:56;;;;;;;0.60;0.60;;;;;;;2.50;52.15;101764.78;668016;29;91112;-71
2022/03/03 00:19:17;;;;;;;0.50;0.50;;;;;;;2.49;52.11;101767.56;671947;29;22401;-71
2022/03/03 00:19:40;;;;;;;0.50;0.50;;;;;;;2.49;52.11;101763.09;671563;29;21547;-71
2022/03/03 00:20:03;;;;;;;0.40;0.40;;;;;;;2.46;52.14;101763.31;669928;29;92478;-71
2022/03/03 00:20:24;;;;;;;0.60;0.60;;;;;;;2.50;52.17;101769.28;672224;29;44105;-71
2022/03/03 00:20:47;;;;;;;0.60;0.60;;;;;;;2.50;52.09;101762.13;675328;29;22190;-70
2022/03/03 00:21:08;;;;;;;0.60;0.60;;;;;;;2.47;52.03;101759.66;673653;29;68414;-71
2022/03/03 00:21:30;;;;;;;0.60;0.60;;;;;;;2.50;51.99;101764.78;674424;29;23268;-71
2022/03/03 00:21:51;;;;;;;0.55;0.55;;;;;;;2.52;52.07;101765.56;673044;29;46358;-71
2022/03/03 00:22:12;;;;;;;0.50;0.50;;;;;;;2.53;52.04;101769.09;674545;29;22470;-71
2022/03/03 00:22:33;;;;;;;0.57;0.57;;;;;;;2.51;52.16;101763.84;674562;29;22400;-71
2022/03/03 00:22:56;;;;;;;0.60;0.60;;;;;;;2.49;52.37;101765.78;674780;29;21550;-71
2022/03/03 00:23:17;;;;;;;0.60;0.60;;;;;;;2.51;52.30;101769.19;673399;29;67336;-71
2022/03/03 00:23:38;;;;;;;0.60;0.60;;;;;;;2.54;52.33;101757.47;675056;29;22424;-71
2022/03/03 00:23:59;;;;;;;0.60;0.60;;;;;;;2.55;52.16;101756.50;675864;29;1086;-71
2022/03/03 00:24:21;;;;;;;0.60;0.60;;;;;;;2.55;52.01;101760.97;674310;29;23264;-71
2022/03/03 00:24:42;;;;;;;0.50;0.50;;;;;;;2.58;51.95;101758.97;673963;29;46325;-71
2022/03/03 00:25:04;;;;;;;0.50;0.50;;;;;;;2.58;52.02;101761.63;674641;29;22410;-71
2022/03/03 00:25:25;;;;;;;0.65;0.65;;;;;;;2.60;52.06;101758.88;674086;29;46369;-71
2022/03/03 00:25:47;;;;;;;0.70;0.70;;;;;;;2.60;51.95;101764.19;675166;29;22402;-71
2022/03/03 00:26:08;;;;;;;0.68;0.68;;;;;;;2.61;51.96;101766.75;673744;29;44417;-71
2022/03/03 00:26:29;;;;;;;0.60;0.60;;;;;;;2.61;51.95;101764.09;673566;29;22207;-71
2022/03/03 00:26:51;;;;;;;0.60;0.60;;;;;;;2.60;51.73;101758.88;674645;29;23591;-71
2022/03/03 00:27:13;;;;;;;0.60;0.60;;;;;;;2.64;52.00;101765.72;672273;29;23085;-71
2022/03/03 00:27:34;;;;;;;0.50;0.50;;;;;;;2.63;51.79;101767.53;672091;29;46313;-71
2022/03/03 00:27:55;;;;;;;0.60;0.60;;;;;;;2.61;51.80;101758.75;671489;29;46349;-71
2022/03/03 00:28:16;;;;;;;0.70;0.70;;;;;;;2.65;51.76;101762.97;670777;29;1925;-71
2022/03/03 00:28:38;;;;;;;0.68;0.68;;;;;;;2.67;51.85;101762.84;669538;29;22451;-71
2022/03/03 00:28:59;;;;;;;0.60;0.60;;;;;;;2.68;51.67;101757.41;669195;29;46339;-71
2022/03/03 00:29:20;;;;;;;0.60;0.60;;;;;;;2.69;51.80;101768.94;672147;29;22387;-71
2022/03/03 00:29:41;;;;;;;0.50;0.50;;;;;;;2.69;51.76;101764.44;671147;29;22417;-71
2022/03/03 00:30:04;;;;;;;0.50;0.50;;;;;;;2.66;51.80;101756.66;672454;29;23275;-71
2022/03/03 00:30:25;;;;;;;0.60;0.60;;;;;;;2.65;51.78;101754.94;673257;29;69456;-70
2022/03/03 00:30:46;;;;;;;0.70;0.70;;;;;;;2.69;51.80;101759.09;674852;29;22282;-71
2022/03/03 00:31:07;;;;;;;0.70;0.70;;;;;;;2.70;51.74;101760.84;675052;29;21543;-71
2022/03/03 00:31:29;;;;;;;0.60;0.60;;;;;;;2.67;51.83;101760.19;674150;29;22410;-71
2022/03/03 00:31:50;;;;;;;0.60;0.60;;;;;;;2.68;51.91;101772.53;674192;29;47026;-71
2022/03/03 00:32:11;;;;;;;0.60;0.60;;;;;;;2.64;52.03;101763.06;674403;29;21546;-71
2022/03/03 00:32:40;;;;;;;0.52;0.52;;;;;;;2.67;51.90;101766.38;674980;29;22544;-71
2022/03/03 00:33:02;;;;;;;0.60;0.60;;;;;;;2.66;51.92;101771.81;671075;29;137969;-71
2022/03/03 00:33:23;;;;;;;0.70;0.70;;;;;;;2.63;52.05;101764.88;674036;29;45273;-71
2022/03/03 00:33:44;;;;;;;0.60;0.60;;;;;;;2.64;52.15;101768.38;671658;29;21318;-71
2022/03/03 00:34:05;;;;;;;0.60;0.60;;;;;;;2.66;52.21;101761.13;672468;29;23487;-71
2022/03/03 00:34:27;;;;;;;0.60;0.60;;;;;;;2.64;52.20;101760.38;672047;29;23395;-70
2022/03/03 00:34:50;;;;;;;0.60;0.60;;;;;;;2.64;52.28;101763.06;671408;29;44365;-71
2022/03/03 00:35:12;;;;;;;0.50;0.50;;;;;;;2.62;52.47;101768.50;670533;29;69221;-71
2022/03/03 00:35:33;;;;;;;0.60;0.60;;;;;;;2.62;52.31;101764.97;672452;29;23447;-71
2022/03/03 00:35:56;;;;;;;0.70;0.70;;;;;;;2.63;52.34;101759.53;673788;29;46695;-71
2022/03/03 00:36:17;;;;;;;0.70;0.70;;;;;;;2.60;52.30;101754.41;673179;29;69493;-71
2022/03/03 00:36:38;;;;;;;0.70;0.70;;;;;;;2.64;52.33;101757.72;673356;29;43446;-71
2022/03/03 00:36:59;;;;;;;0.63;0.63;;;;;;;2.65;52.41;101759.41;675171;29;20897;-71
2022/03/03 00:37:21;;;;;;;0.70;0.70;;;;;;;2.67;52.17;101754.84;674938;29;22882;-71
2022/03/03 00:37:42;;;;;;;0.57;0.57;;;;;;;2.69;52.12;101759.09;673975;29;45280;-71
2022/03/03 00:38:03;;;;;;;0.50;0.50;;;;;;;2.72;52.13;101760.72;674907;29;23539;-71
2022/03/03 00:38:24;;;;;;;0.70;0.70;;;;;;;2.69;52.12;101748.44;674820;29;22380;-71
2022/03/03 00:38:47;;;;;;;0.70;0.70;;;;;;;2.74;51.78;101756.16;674972;29;23360;-71
2022/03/03 00:39:09;;;;;;;0.60;0.60;;;;;;;2.74;51.59;101763.31;673109;29;69426;-70
2022/03/03 00:39:30;;;;;;;0.60;0.60;;;;;;;2.75;51.56;101751.69;673673;29;45288;-70
2022/03/03 00:39:51;;;;;;;0.60;0.60;;;;;;;2.74;51.76;101760.63;674439;29;23435;-71
2022/03/03 00:40:12;;;;;;;0.57;0.57;;;;;;;2.74;51.77;101761.47;675106;29;22386;-71
2022/03/03 00:40:35;;;;;;;0.60;0.60;;;;;;;2.72;51.75;101752.72;675160;29;23711;-71
2022/03/03 00:40:56;;;;;;;0.70;0.70;;;;;;;2.69;51.95;101751.09;674131;29;46344;-70
2022/03/03 00:41:18;;;;;;;0.73;0.73;;;;;;;2.70;52.19;101752.00;674888;29;21278;-71
2022/03/03 00:41:39;;;;;;;0.68;0.68;;;;;;;2.69;51.94;101755.59;672989;29;66523;-71
2022/03/03 00:42:01;;;;;;;0.65;0.65;;;;;;;2.68;51.76;101757.41;674625;29;22398;-71
2022/03/03 00:42:22;;;;;;;0.60;0.60;;;;;;;2.70;51.74;101752.81;673983;29;45273;-71
2022/03/03 00:42:43;;;;;;;0.50;0.50;;;;;;;2.74;51.60;101756.16;674960;29;23489;-71
2022/03/03 00:43:04;;;;;;;0.50;0.50;;;;;;;2.74;51.51;101753.47;675073;29;21528;-71
2022/03/03 00:43:26;;;;;;;0.60;0.60;;;;;;;2.75;51.56;101751.69;674027;29;46301;-71
2022/03/03 00:43:47;;;;;;;0.65;0.65;;;;;;;2.75;51.43;101749.00;674173;29;46146;-71
2022/03/03 00:44:09;;;;;;;0.60;0.60;;;;;;;2.74;51.54;101750.81;675140;29;21546;-71
2022/03/03 00:44:30;;;;;;;0.50;0.50;;;;;;;2.75;51.49;101754.34;673838;29;46545;-71
2022/03/03 00:44:52;;;;;;;0.47;0.47;;;;;;;2.75;51.55;101752.53;674641;29;21531;-70
2022/03/03 00:45:14;;;;;;;0.60;0.60;;;;;;;2.71;51.45;101745.69;674049;29;44415;-71
2022/03/03 00:45:35;;;;;;;0.80;0.80;;;;;;;2.73;51.48;101751.78;674790;29;22410;-70
2022/03/03 00:45:56;;;;;;;0.70;0.70;;;;;;;2.67;51.49;101753.03;674207;29;44462;-71
2022/03/03 00:46:19;;;;;;;0.60;0.60;;;;;;;2.66;51.51;101753.13;674704;29;22342;-71
2022/03/03 00:46:47;;;;;;;0.55;0.55;;;;;;;2.61;51.68;101755.25;672291;29;80089;-70
2022/03/03 00:47:08;;;;;;;0.60;0.60;;;;;;;2.61;51.66;101755.25;675737;29;1620;-71
2022/03/03 00:47:31;;;;;;;0.50;0.50;;;;;;;2.60;51.75;101756.19;675321;29;2030;-71
2022/03/03 00:47:53;;;;;;;0.60;0.60;;;;;;;2.56;51.68;101750.22;674104;29;46384;-71
2022/03/03 00:48:14;;;;;;;0.70;0.70;;;;;;;2.53;51.87;101756.59;675015;29;21544;-71
2022/03/03 00:48:35;;;;;;;0.70;0.70;;;;;;;2.55;51.93;101763.66;674967;29;22453;-71
2022/03/03 00:48:57;;;;;;;0.60;0.60;;;;;;;2.50;51.86;101756.78;674344;29;44351;-70
2022/03/03 00:49:18;;;;;;;0.60;0.60;;;;;;;2.50;51.85;101756.78;673726;29;46321;-71
2022/03/03 00:49:39;;;;;;;0.60;0.60;;;;;;;2.49;51.94;101765.78;674103;29;21351;-71
2022/03/03 00:50:01;;;;;;;0.50;0.50;;;;;;;2.47;52.07;101759.66;674511;29;22417;-71
2022/03/03 00:50:23;;;;;;;0.50;0.50;;;;;;;2.49;51.98;101756.91;674668;29;21525;-71
2022/03/03 00:50:44;;;;;;;0.70;0.70;;;;;;;2.48;52.11;101755.19;674216;29;46119;-71
2022/03/03 00:51:07;;;;;;;0.70;0.70;;;;;;;2.49;51.97;101756.91;674070;29;45188;-71
2022/03/03 00:51:28;;;;;;;0.60;0.60;;;;;;;2.48;52.02;101757.88;672514;29;67524;-71
2022/03/03 00:51:50;;;;;;;0.60;0.60;;;;;;;2.45;51.95;101750.06;675071;29;21211;-71
2022/03/03 00:52:11;;;;;;;0.60;0.60;;;;;;;2.44;52.03;101753.69;674023;29;46356;-71
2022/03/03 00:52:33;;;;;;;0.50;0.50;;;;;;;2.40;52.14;101749.50;674370;29;23501;-71
2022/03/03 00:52:54;;;;;;;0.50;0.50;;;;;;;2.39;52.32;101756.63;674507;29;22403;-71
2022/03/03 00:53:15;;;;;;;0.65;0.65;;;;;;;2.41;52.35;101748.53;674537;29;23487;-71
2022/03/03 00:53:37;;;;;;;0.80;0.80;;;;;;;2.42;52.37;101753.78;674965;29;22476;-71
2022/03/03 00:53:58;;;;;;;0.63;0.63;;;;;;;2.43;52.51;101750.16;673321;29;69716;-71
2022/03/03 00:54:19;;;;;;;0.60;0.60;;;;;;;2.45;52.38;101750.91;674696;29;23633;-70
2022/03/03 00:54:41;;;;;;;0.60;0.60;;;;;;;2.47;52.32;101750.81;675339;29;15831;-70
2022/03/03 00:55:03;;;;;;;0.50;0.50;;;;;;;2.44;52.43;101749.19;674158;29;46329;-70
2022/03/03 00:55:24;;;;;;;0.50;0.50;;;;;;;2.44;52.41;101751.00;673746;29;46353;-70
2022/03/03 00:55:45;;;;;;;0.60;0.60;;;;;;;2.46;52.26;101751.75;674497;29;22391;-70
2022/03/03 00:56:07;;;;;;;0.73;0.73;;;;;;;2.48;52.25;101749.88;674626;29;23497;-71
2022/03/03 00:56:28;;;;;;;0.70;0.70;;;;;;;2.48;52.30;101753.38;674539;29;21745;-71
2022/03/03 00:56:49;;;;;;;0.60;0.60;;;;;;;2.49;52.14;101755.09;675514;29;22383;-71
2022/03/03 00:57:11;;;;;;;0.57;0.57;;;;;;;2.49;52.20;101755.09;675319;29;22383;-71
2022/03/03 00:57:32;;;;;;;0.50;0.50;;;;;;;2.49;52.37;101754.22;674690;29;46282;-71
2022/03/03 00:57:53;;;;;;;0.50;0.50;;;;;;;2.50;52.34;101750.63;672094;29;4807;-71
2022/03/03 00:58:14;;;;;;;0.40;0.40;;;;;;;2.52;52.42;101754.03;671893;29;23437;-71
2022/03/03 00:58:36;;;;;;;0.68;0.68;;;;;;;2.49;52.56;101757.78;671458;29;45266;-71
2022/03/03 00:58:58;;;;;;;0.70;0.70;;;;;;;2.50;52.54;101754.13;672530;29;21236;-71
2022/03/03 00:59:19;;;;;;;0.60;0.60;;;;;;;2.52;52.35;101752.25;671693;29;46296;-71
2022/03/03 00:59:40;;;;;;;0.60;0.60;;;;;;;2.55;52.22;101752.97;672619;29;23482;-71
2022/03/03 01:00:05;;;;;;;0.57;0.57;;;;;;;2.56;52.06;101754.72;675054;29;22230;-70
2022/03/03 01:00:27;;;;;;;0.50;0.50;;;;;;;2.57;52.02;101756.41;672367;29;115138;-70
2022/03/03 01:00:48;;;;;;;0.40;0.40;;;;;;;2.59;51.91;101754.50;674185;29;46401;-70
2022/03/03 01:01:09;;;;;;;0.60;0.60;;;;;;;2.59;51.81;101754.50;675225;29;23494;-70
2022/03/03 01:01:30;;;;;;;0.70;0.70;;;;;;;2.57;51.80;101759.94;674354;29;22417;-71
2022/03/03 01:01:52;;;;;;;0.60;0.60;;;;;;;2.56;51.75;101758.22;675042;29;21348;-71
2022/03/03 01:02:13;;;;;;;0.60;0.60;;;;;;;2.53;51.89;101753.09;674393;29;46492;-71
2022/03/03 01:02:35;;;;;;;0.60;0.60;;;;;;;2.56;51.93;101755.56;675642;29;22036;-71
2022/03/03 01:02:56;;;;;;;0.57;0.57;;;;;;;2.58;51.69;101758.13;675078;29;22269;-71
2022/03/03 01:03:18;;;;;;;0.50;0.50;;;;;;;2.59;51.82;101758.03;675646;29;13104;-71
2022/03/03 01:03:39;;;;;;;0.60;0.60;;;;;;;2.59;51.63;101755.34;674719;29;45277;-70
2022/03/03 01:04:01;;;;;;;0.70;0.70;;;;;;;2.59;51.69;101758.03;674875;29;22421;-70
2022/03/03 01:04:23;;;;;;;0.70;0.70;;;;;;;2.62;51.72;101767.66;675087;29;21659;-70
2022/03/03 01:04:44;;;;;;;0.60;0.60;;;;;;;2.59;51.83;101760.69;674540;29;46327;-70
2022/03/03 01:05:06;;;;;;;0.60;0.60;;;;;;;2.54;51.93;101762.81;675480;29;21346;-70
2022/03/03 01:05:27;;;;;;;0.60;0.60;;;;;;;2.58;51.97;101760.78;673123;29;69907;-70
2022/03/03 01:05:49;;;;;;;0.50;0.50;;;;;;;2.59;51.90;101763.34;675481;29;22421;-70
2022/03/03 01:06:14;;;;;;;0.57;0.57;;;;;;;2.60;51.88;101750.88;674696;29;45228;-71
2022/03/03 01:06:35;;;;;;;0.70;0.70;;;;;;;2.58;51.81;101756.28;672188;29;93189;-71
2022/03/03 01:06:56;;;;;;;0.60;0.60;;;;;;;2.61;51.74;101765.94;675497;29;22389;-70
2022/03/03 01:07:18;;;;;;;0.60;0.60;;;;;;;2.57;51.96;101754.59;674921;29;44405;-70
2022/03/03 01:07:39;;;;;;;0.60;0.60;;;;;;;2.58;52.18;101760.78;675582;29;22454;-71
2022/03/03 01:08:00;;;;;;;0.50;0.50;;;;;;;2.56;52.11;101763.56;674871;29;46421;-71
2022/03/03 01:08:21;;;;;;;0.50;0.50;;;;;;;2.57;52.16;101769.72;675331;29;22239;-71
2022/03/03 01:08:43;;;;;;;0.68;0.68;;;;;;;2.57;52.19;101765.28;675611;29;21361;-71
2022/03/03 01:09:04;;;;;;;0.70;0.70;;;;;;;2.55;52.16;101761.84;674712;29;44410;-71
2022/03/03 01:09:25;;;;;;;0.70;0.70;;;;;;;2.52;52.13;101762.91;675243;29;21555;-71
2022/03/03 01:09:46;;;;;;;0.70;0.70;;;;;;;2.54;52.16;101760.13;674973;29;21542;-70
2022/03/03 01:10:10;;;;;;;0.60;0.60;;;;;;;2.51;52.27;101763.00;675261;29;22421;-70
2022/03/03 01:10:31;;;;;;;0.60;0.60;;;;;;;2.51;52.40;101763.00;672763;29;92797;-71
2022/03/03 01:10:53;;;;;;;0.50;0.50;;;;;;;2.53;52.28;101753.94;675611;29;21688;-70
2022/03/03 01:11:15;;;;;;;0.60;0.60;;;;;;;2.53;52.27;101759.25;670177;29;23652;-70
2022/03/03 01:11:36;;;;;;;0.70;0.70;;;;;;;2.57;52.17;101764.41;667744;29;66890;-70
2022/03/03 01:11:57;;;;;;;0.70;0.70;;;;;;;2.52;52.05;101760.25;670099;29;21581;-70
2022/03/03 01:12:18;;;;;;;0.70;0.70;;;;;;;2.59;52.10;101759.84;669918;29;22188;-70
2022/03/03 01:12:39;;;;;;;0.60;0.60;;;;;;;2.59;52.04;101759.84;669926;29;21550;-70
2022/03/03 01:13:01;;;;;;;0.60;0.60;;;;;;;2.60;51.98;101762.41;671299;29;21705;-70
2022/03/03 01:13:22;;;;;;;0.50;0.50;;;;;;;2.60;51.99;101759.75;674377;29;46150;-70
2022/03/03 01:13:44;;;;;;;0.50;0.50;;;;;;;2.61;51.98;101757.91;675381;29;23511;-70
2022/03/03 01:14:05;;;;;;;0.70;0.70;;;;;;;2.61;51.97;101758.75;675217;29;23557;-71
2022/03/03 01:14:27;;;;;;;0.80;0.80;;;;;;;2.60;51.91;101753.53;675100;29;22414;-71
2022/03/03 01:14:48;;;;;;;0.70;0.70;;;;;;;2.62;51.93;101754.31;674704;29;46347;-70
2022/03/03 01:15:10;;;;;;;0.60;0.60;;;;;;;2.63;51.92;101753.34;672933;29;22500;-70
2022/03/03 01:15:32;;;;;;;0.60;0.60;;;;;;;2.62;51.86;101748.97;670836;29;67514;-70
2022/03/03 01:15:53;;;;;;;0.50;0.50;;;;;;;2.61;51.83;101753.44;671818;29;45340;-70
2022/03/03 01:16:15;;;;;;;0.50;0.50;;;;;;;2.58;51.82;101750.97;672606;29;23484;-71
2022/03/03 01:16:36;;;;;;;0.70;0.70;;;;;;;2.61;51.94;101752.59;670572;29;45274;-71
2022/03/03 01:16:57;;;;;;;0.70;0.70;;;;;;;2.59;51.87;101752.69;673113;29;22398;-70
2022/03/03 01:17:18;;;;;;;0.60;0.60;;;;;;;2.61;51.87;101758.75;675130;29;23412;-70
2022/03/03 01:17:40;;;;;;;0.60;0.60;;;;;;;2.56;51.97;101744.88;675040;29;22397;-70
2022/03/03 01:18:02;;;;;;;0.60;0.60;;;;;;;2.61;51.97;101749.91;674964;29;22406;-70
2022/03/03 01:18:23;;;;;;;0.60;0.60;;;;;;;2.60;51.87;101753.53;674500;29;46320;-70
2022/03/03 01:18:44;;;;;;;0.50;0.50;;;;;;;2.59;51.80;101750.03;675401;29;21514;-70
2022/03/03 01:19:05;;;;;;;0.68;0.68;;;;;;;2.58;51.86;101753.63;675468;29;21548;-70
2022/03/03 01:19:27;;;;;;;0.80;0.80;;;;;;;2.58;51.84;101753.63;675467;29;21551;-70
2022/03/03 01:19:49;;;;;;;0.70;0.70;;;;;;;2.58;51.84;101752.78;673284;29;69247;-70
2022/03/03 01:20:11;;;;;;;0.60;0.60;;;;;;;2.57;51.91;101751.94;673797;29;69135;-70
2022/03/03 01:20:32;;;;;;;0.60;0.60;;;;;;;2.54;51.88;101744.13;674314;29;45240;-70
2022/03/03 01:20:55;;;;;;;0.55;0.55;;;;;;;2.53;51.92;101751.25;675490;29;21533;-70
2022/03/03 01:21:17;;;;;;;0.50;0.50;;;;;;;2.53;51.92;101745.94;674422;29;45074;-70
2022/03/03 01:21:38;;;;;;;0.60;0.60;;;;;;;2.52;51.88;101746.91;672448;29;89145;-70
2022/03/03 01:21:59;;;;;;;0.70;0.70;;;;;;;2.51;51.82;101753.19;675535;29;22357;-70
2022/03/03 01:22:21;;;;;;;0.70;0.70;;;;;;;2.51;51.91;101750.50;675392;29;23422;-70
2022/03/03 01:22:42;;;;;;;0.60;0.60;;;;;;;2.50;51.99;101745.28;674828;29;39864;-70
2022/03/03 01:23:03;;;;;;;0.60;0.60;;;;;;;2.50;51.86;101747.94;675086;29;21530;-71
2022/03/03 01:23:25;;;;;;;0.52;0.52;;;;;;;2.52;51.97;101746.91;675379;29;20889;-71
2022/03/03 01:23:47;;;;;;;0.50;0.50;;;;;;;2.51;52.00;101749.66;675139;29;22197;-71
2022/03/03 01:24:08;;;;;;;0.50;0.50;;;;;;;2.49;52.11;101749.78;674383;29;46349;-71
2022/03/03 01:24:29;;;;;;;0.70;0.70;;;;;;;2.49;52.23;101746.22;675373;29;21537;-71
2022/03/03 01:24:50;;;;;;;0.70;0.70;;;;;;;2.47;52.23;101749.00;675496;29;22439;-70
2022/03/03 01:25:11;;;;;;;0.60;0.60;;;;;;;2.47;52.16;101745.47;674652;29;46326;-70
2022/03/03 01:25:33;;;;;;;0.60;0.60;;;;;;;2.49;52.21;101746.22;675458;29;22421;-70
2022/03/03 01:25:54;;;;;;;0.60;0.60;;;;;;;2.46;52.19;101741.97;674636;29;44424;-71
2022/03/03 01:26:15;;;;;;;0.60;0.60;;;;;;;2.49;52.15;101748.91;674751;29;21561;-71
2022/03/03 01:26:36;;;;;;;0.50;0.50;;;;;;;2.50;52.06;101743.47;674707;29;21056;-71
2022/03/03 01:26:59;;;;;;;0.60;0.60;;;;;;;2.50;52.03;101746.13;674839;29;22296;-71
2022/03/03 01:27:20;;;;;;;0.70;0.70;;;;;;;2.49;52.00;101747.09;674396;29;46585;-71
2022/03/03 01:27:41;;;;;;;0.70;0.70;;;;;;;2.50;51.98;101738.13;675630;29;22380;-71
2022/03/03 01:28:02;;;;;;;0.60;0.60;;;;;;;2.51;51.95;101739.00;675206;29;22414;-71
2022/03/03 01:28:24;;;;;;;0.60;0.60;;;;;;;2.51;52.04;101745.19;675468;29;23226;-71
2022/03/03 01:28:45;;;;;;;0.52;0.52;;;;;;;2.51;51.96;101742.50;674784;29;46317;-71
2022/03/03 01:29:06;;;;;;;0.50;0.50;;;;;;;2.47;51.98;101740.16;675133;29;23699;-71
2022/03/03 01:29:27;;;;;;;0.50;0.50;;;;;;;2.47;52.00;101741.00;674737;29;45236;-71
2022/03/03 01:29:48;;;;;;;0.57;0.57;;;;;;;2.45;52.05;101744.72;674804;29;22217;-71
2022/03/03 01:30:11;;;;;;;0.50;0.50;;;;;;;2.44;52.14;101746.53;676174;29;1502;-71
2022/03/03 01:30:33;;;;;;;0.50;0.50;;;;;;;2.42;52.18;101737.78;671141;29;70916;-71
2022/03/03 01:30:54;;;;;;;0.60;0.60;;;;;;;2.41;52.25;101741.38;672676;29;22193;-71
2022/03/03 01:31:15;;;;;;;0.60;0.60;;;;;;;2.38;52.30;101735.41;672890;29;23489;-71
2022/03/03 01:31:37;;;;;;;0.50;0.50;;;;;;;2.35;52.33;101733.78;671948;29;22222;-71
2022/03/03 01:31:58;;;;;;;0.57;0.57;;;;;;;2.36;52.39;101737.31;671780;29;46358;-71
2022/03/03 01:32:19;;;;;;;0.50;0.50;;;;;;;2.33;52.45;101738.38;673510;29;23570;-71
2022/03/03 01:32:40;;;;;;;0.50;0.50;;;;;;;2.31;52.48;101734.97;674024;29;44402;-71
2022/03/03 01:33:02;;;;;;;0.50;0.50;;;;;;;2.29;52.47;101739.53;674750;29;22406;-71
2022/03/03 01:33:23;;;;;;;0.60;0.60;;;;;;;2.29;52.63;101737.72;674422;29;46540;-71
2022/03/03 01:33:44;;;;;;;0.60;0.60;;;;;;;2.27;52.48;101728.09;675532;29;21222;-70
2022/03/03 01:34:06;;;;;;;0.60;0.60;;;;;;;2.28;52.52;101738.66;675396;29;23434;-70
2022/03/03 01:34:29;;;;;;;0.60;0.60;;;;;;;2.28;52.69;101732.50;675492;29;22239;-70
2022/03/03 01:34:50;;;;;;;0.50;0.50;;;;;;;2.33;52.47;101738.38;673475;29;67421;-71
2022/03/03 01:35:11;;;;;;;0.50;0.50;;;;;;;2.32;52.40;101728.66;675187;29;22400;-71
2022/03/03 01:35:32;;;;;;;0.40;0.40;;;;;;;2.32;52.42;101731.31;675032;29;22407;-71
2022/03/03 01:35:54;;;;;;;0.57;0.57;;;;;;;2.37;52.43;101731.03;675679;29;18759;-71
2022/03/03 01:36:19;;;;;;;0.60;0.60;;;;;;;2.37;52.25;101734.56;674593;29;46329;-71
2022/03/03 01:36:40;;;;;;;0.60;0.60;;;;;;;2.33;52.51;101727.72;670564;29;134793;-71
2022/03/03 01:37:01;;;;;;;0.60;0.60;;;;;;;2.34;52.58;101730.28;675355;29;22441;-71
2022/03/03 01:37:23;;;;;;;0.60;0.60;;;;;;;2.32;52.58;101728.66;675520;29;20948;-71
2022/03/03 01:37:44;;;;;;;0.55;0.55;;;;;;;2.32;52.59;101729.53;672141;29;45308;-71
2022/03/03 01:38:05;;;;;;;0.50;0.50;;;;;;;2.34;52.57;101737.44;671746;29;46442;-71
2022/03/03 01:38:26;;;;;;;0.60;0.60;;;;;;;2.36;52.55;101734.66;672487;29;22435;-71
2022/03/03 01:38:48;;;;;;;0.70;0.70;;;;;;;2.36;52.46;101730.19;672766;29;23505;-71
2022/03/03 01:39:10;;;;;;;0.70;0.70;;;;;;;2.32;52.58;101726.88;671906;29;46334;-71
2022/03/03 01:39:31;;;;;;;0.60;0.60;;;;;;;2.34;52.57;101732.09;671567;29;44390;-71
2022/03/03 01:39:52;;;;;;;0.60;0.60;;;;;;;2.33;52.66;101728.56;674717;29;23350;-71
2022/03/03 01:40:15;;;;;;;0.50;0.50;;;;;;;2.32;52.59;101732.19;674930;29;23548;-71
2022/03/03 01:40:36;;;;;;;0.50;0.50;;;;;;;2.35;52.81;101731.13;674546;29;44328;-71
2022/03/03 01:40:57;;;;;;;0.50;0.50;;;;;;;2.39;52.66;101740.66;675389;29;23738;-71
2022/03/03 01:41:18;;;;;;;0.70;0.70;;;;;;;2.39;52.61;101729.97;673495;29;46396;-71
2022/03/03 01:41:41;;;;;;;0.70;0.70;;;;;;;2.40;52.47;101733.50;675309;29;21522;-71
2022/03/03 01:42:03;;;;;;;0.60;0.60;;;;;;;2.43;52.48;101735.97;673293;29;67537;-71
2022/03/03 01:42:24;;;;;;;0.50;0.50;;;;;;;2.44;52.51;101733.19;675219;29;22231;-71